This is the latest recevied weather packets stored in our database for station/object DD8XX-10. If no packets are shown the sender has not sent any weather packets the latest 10 day(s).
| Time | Temp. | Humidity | Pressure | Rain* | Wind** | Luminosity | Snow |
|---|---|---|---|---|---|---|---|
| 1777595211 | 3.33° C | 55% | 1030.8 hPa | - | - | - | - |
| 1777594311 | 3.33° C | 55% | 1030.7 hPa | - | - | - | - |
| 1777593411 | 3.89° C | 56% | 1030.7 hPa | - | - | - | - |
| 1777592511 | 3.89° C | 56% | 1030.8 hPa | - | - | - | - |
| 1777591611 | 3.89° C | 55% | 1030.9 hPa | - | - | - | - |
| 1777590711 | 3.89° C | 55% | 1030.9 hPa | - | - | - | - |
| 1777589811 | 3.89° C | 56% | 1030.9 hPa | - | - | - | - |
| 1777588911 | 3.89° C | 55% | 1030.8 hPa | - | - | - | - |
| 1777588010 | 4.44° C | 55% | 1030.9 hPa | - | - | - | - |
| 1777587110 | 4.44° C | 55% | 1030.9 hPa | - | - | - | - |
| 1777586210 | 4.44° C | 55% | 1031 hPa | - | - | - | - |
| 1777585310 | 5° C | 53% | 1030.9 hPa | - | - | - | - |
| 1777584410 | 5° C | 52% | 1030.8 hPa | - | - | - | - |
| 1777583510 | 5.56° C | 51% | 1030.9 hPa | - | - | - | - |
| 1777582610 | 6.11° C | 50% | 1030.8 hPa | - | - | - | - |
| 1777581710 | 6.11° C | 51% | 1030.8 hPa | - | - | - | - |
| 1777580810 | 6.11° C | 49% | 1030.7 hPa | - | - | - | - |
| 1777579909 | 6.67° C | 48% | 1030.5 hPa | - | - | - | - |
| 1777579009 | 7.22° C | 45% | 1030.3 hPa | - | - | - | - |
| 1777578109 | 7.78° C | 42% | 1030 hPa | - | - | - | - |
| 1777577209 | 8.33° C | 40% | 1030 hPa | - | - | - | - |
| 1777576309 | 8.33° C | 38% | 1029.7 hPa | - | - | - | - |
| 1777575409 | 8.89° C | 33% | 1029.5 hPa | - | - | - | - |
| 1777574509 | 10° C | 30% | 1029.4 hPa | - | - | - | - |
| 1777573608 | 10° C | 31% | 1029.1 hPa | - | - | - | - |
* Rain since midnight (hover to see other rain measurements)
** Current wind speed in m/s (hover to see current wind gust speed)